sensor_id;sensor_type;location;lat;lon;timestamp;P1;durP1;ratioP1;P2;durP2;ratioP2
11238;SDS011;5677;48.488;13.436;2023-06-05T00:01:16;2.97;;;2.60;;
11238;SDS011;5677;48.488;13.436;2023-06-05T00:03:43;2.60;;;2.40;;
11238;SDS011;5677;48.488;13.436;2023-06-05T00:06:10;3.00;;;2.70;;
11238;SDS011;5677;48.488;13.436;2023-06-05T00:08:36;3.37;;;2.60;;
11238;SDS011;5677;48.488;13.436;2023-06-05T00:11:03;2.97;;;2.67;;
11238;SDS011;5677;48.488;13.436;2023-06-05T00:13:30;2.60;;;2.40;;
11238;SDS011;5677;48.488;13.436;2023-06-05T00:15:56;4.53;;;2.40;;
11238;SDS011;5677;48.488;13.436;2023-06-05T00:18:25;3.07;;;2.57;;
11238;SDS011;5677;48.488;13.436;2023-06-05T00:20:51;3.53;;;2.60;;
11238;SDS011;5677;48.488;13.436;2023-06-05T00:23:18;3.17;;;2.30;;
11238;SDS011;5677;48.488;13.436;2023-06-05T00:25:45;2.60;;;2.40;;
11238;SDS011;5677;48.488;13.436;2023-06-05T00:28:11;3.57;;;2.30;;
11238;SDS011;5677;48.488;13.436;2023-06-05T00:30:38;3.43;;;2.53;;
11238;SDS011;5677;48.488;13.436;2023-06-05T00:33:05;2.70;;;2.47;;
11238;SDS011;5677;48.488;13.436;2023-06-05T00:35:33;6.77;;;2.80;;
11238;SDS011;5677;48.488;13.436;2023-06-05T00:38:00;4.73;;;2.70;;
11238;SDS011;5677;48.488;13.436;2023-06-05T00:40:27;3.47;;;2.47;;
11238;SDS011;5677;48.488;13.436;2023-06-05T00:42:53;2.53;;;2.33;;
11238;SDS011;5677;48.488;13.436;2023-06-05T00:45:20;2.63;;;2.30;;
11238;SDS011;5677;48.488;13.436;2023-06-05T00:47:47;3.67;;;2.63;;
11238;SDS011;5677;48.488;13.436;2023-06-05T00:50:14;2.87;;;2.33;;
11238;SDS011;5677;48.488;13.436;2023-06-05T00:52:44;3.87;;;2.30;;
11238;SDS011;5677;48.488;13.436;2023-06-05T00:55:12;4.83;;;2.70;;
11238;SDS011;5677;48.488;13.436;2023-06-05T00:57:39;3.00;;;2.27;;
11238;SDS011;5677;48.488;13.436;2023-06-05T01:00:06;3.50;;;2.53;;
11238;SDS011;5677;48.488;13.436;2023-06-05T01:02:37;3.70;;;2.70;;
11238;SDS011;5677;48.488;13.436;2023-06-05T01:05:05;2.97;;;2.40;;
11238;SDS011;5677;48.488;13.436;2023-06-05T01:07:31;4.13;;;2.50;;
11238;SDS011;5677;48.488;13.436;2023-06-05T01:10:00;2.60;;;2.37;;
11238;SDS011;5677;48.488;13.436;2023-06-05T01:12:30;3.03;;;2.60;;
11238;SDS011;5677;48.488;13.436;2023-06-05T01:15:02;2.60;;;2.40;;
11238;SDS011;5677;48.488;13.436;2023-06-05T01:17:31;2.90;;;2.60;;
11238;SDS011;5677;48.488;13.436;2023-06-05T01:19:59;2.40;;;2.20;;
11238;SDS011;5677;48.488;13.436;2023-06-05T01:22:34;2.90;;;2.30;;
11238;SDS011;5677;48.488;13.436;2023-06-05T01:25:04;2.63;;;2.43;;
11238;SDS011;5677;48.488;13.436;2023-06-05T01:27:35;3.63;;;2.50;;
11238;SDS011;5677;48.488;13.436;2023-06-05T01:30:09;4.27;;;2.43;;
11238;SDS011;5677;48.488;13.436;2023-06-05T01:32:43;2.80;;;2.60;;
11238;SDS011;5677;48.488;13.436;2023-06-05T01:35:18;2.83;;;2.60;;
11238;SDS011;5677;48.488;13.436;2023-06-05T01:37:46;2.50;;;2.30;;
11238;SDS011;5677;48.488;13.436;2023-06-05T01:40:17;2.73;;;2.10;;
11238;SDS011;5677;48.488;13.436;2023-06-05T01:42:46;2.27;;;2.07;;
11238;SDS011;5677;48.488;13.436;2023-06-05T01:45:14;2.83;;;2.60;;
11238;SDS011;5677;48.488;13.436;2023-06-05T01:47:41;2.40;;;2.20;;
11238;SDS011;5677;48.488;13.436;2023-06-05T01:50:09;2.93;;;2.57;;
11238;SDS011;5677;48.488;13.436;2023-06-05T01:52:37;3.07;;;2.67;;
11238;SDS011;5677;48.488;13.436;2023-06-05T01:55:06;3.33;;;2.70;;
11238;SDS011;5677;48.488;13.436;2023-06-05T01:57:41;2.57;;;2.20;;
11238;SDS011;5677;48.488;13.436;2023-06-05T02:00:08;2.60;;;2.40;;
11238;SDS011;5677;48.488;13.436;2023-06-05T02:02:38;2.67;;;2.23;;
11238;SDS011;5677;48.488;13.436;2023-06-05T02:05:06;3.07;;;2.60;;
11238;SDS011;5677;48.488;13.436;2023-06-05T02:07:34;2.97;;;2.70;;
11238;SDS011;5677;48.488;13.436;2023-06-05T02:10:03;3.00;;;2.50;;
11238;SDS011;5677;48.488;13.436;2023-06-05T02:12:30;3.23;;;2.30;;
11238;SDS011;5677;48.488;13.436;2023-06-05T02:14:58;2.63;;;2.43;;
11238;SDS011;5677;48.488;13.436;2023-06-05T02:17:25;3.00;;;2.30;;
11238;SDS011;5677;48.488;13.436;2023-06-05T02:19:52;2.47;;;2.27;;
11238;SDS011;5677;48.488;13.436;2023-06-05T02:22:19;2.60;;;2.40;;
11238;SDS011;5677;48.488;13.436;2023-06-05T02:24:48;2.77;;;2.57;;
11238;SDS011;5677;48.488;13.436;2023-06-05T02:27:15;2.73;;;2.10;;
11238;SDS011;5677;48.488;13.436;2023-06-05T02:29:43;4.90;;;2.43;;
11238;SDS011;5677;48.488;13.436;2023-06-05T02:32:11;2.70;;;2.10;;
11238;SDS011;5677;48.488;13.436;2023-06-05T02:34:38;2.60;;;2.27;;
11238;SDS011;5677;48.488;13.436;2023-06-05T02:37:05;2.67;;;2.30;;
11238;SDS011;5677;48.488;13.436;2023-06-05T02:39:31;3.00;;;2.33;;
11238;SDS011;5677;48.488;13.436;2023-06-05T02:41:58;3.40;;;2.53;;
11238;SDS011;5677;48.488;13.436;2023-06-05T02:44:25;2.50;;;2.23;;
11238;SDS011;5677;48.488;13.436;2023-06-05T02:46:52;2.50;;;2.30;;
11238;SDS011;5677;48.488;13.436;2023-06-05T02:49:20;3.53;;;2.33;;
11238;SDS011;5677;48.488;13.436;2023-06-05T02:51:46;2.80;;;2.50;;
11238;SDS011;5677;48.488;13.436;2023-06-05T02:54:13;3.40;;;2.20;;
11238;SDS011;5677;48.488;13.436;2023-06-05T02:56:40;2.73;;;2.30;;
11238;SDS011;5677;48.488;13.436;2023-06-05T02:59:09;3.57;;;2.33;;
11238;SDS011;5677;48.488;13.436;2023-06-05T03:01:35;2.60;;;2.40;;
11238;SDS011;5677;48.488;13.436;2023-06-05T03:04:02;3.90;;;2.73;;
11238;SDS011;5677;48.488;13.436;2023-06-05T03:06:30;2.60;;;2.40;;
11238;SDS011;5677;48.488;13.436;2023-06-05T03:09:00;2.60;;;2.40;;
11238;SDS011;5677;48.488;13.436;2023-06-05T03:11:27;2.37;;;2.17;;
11238;SDS011;5677;48.488;13.436;2023-06-05T03:13:54;3.00;;;2.30;;
11238;SDS011;5677;48.488;13.436;2023-06-05T03:16:21;2.73;;;2.40;;
11238;SDS011;5677;48.488;13.436;2023-06-05T03:18:49;2.67;;;2.47;;
11238;SDS011;5677;48.488;13.436;2023-06-05T03:21:15;2.90;;;2.30;;
11238;SDS011;5677;48.488;13.436;2023-06-05T03:23:43;2.83;;;2.43;;
11238;SDS011;5677;48.488;13.436;2023-06-05T03:26:11;2.20;;;2.00;;
11238;SDS011;5677;48.488;13.436;2023-06-05T03:28:37;2.47;;;2.27;;
11238;SDS011;5677;48.488;13.436;2023-06-05T03:31:04;2.37;;;2.17;;
11238;SDS011;5677;48.488;13.436;2023-06-05T03:33:31;2.47;;;2.27;;
11238;SDS011;5677;48.488;13.436;2023-06-05T03:35:57;2.33;;;2.13;;
11238;SDS011;5677;48.488;13.436;2023-06-05T03:38:25;2.80;;;2.00;;
11238;SDS011;5677;48.488;13.436;2023-06-05T03:40:53;2.50;;;2.30;;
11238;SDS011;5677;48.488;13.436;2023-06-05T03:43:19;2.30;;;2.10;;
11238;SDS011;5677;48.488;13.436;2023-06-05T03:45:50;3.00;;;2.00;;
11238;SDS011;5677;48.488;13.436;2023-06-05T03:48:16;2.37;;;2.17;;
11238;SDS011;5677;48.488;13.436;2023-06-05T03:50:45;2.33;;;2.10;;
11238;SDS011;5677;48.488;13.436;2023-06-05T03:53:12;2.60;;;1.97;;
11238;SDS011;5677;48.488;13.436;2023-06-05T03:55:40;2.53;;;2.33;;
11238;SDS011;5677;48.488;13.436;2023-06-05T03:58:12;3.00;;;2.47;;
11238;SDS011;5677;48.488;13.436;2023-06-05T04:00:40;2.60;;;2.40;;
11238;SDS011;5677;48.488;13.436;2023-06-05T04:03:07;2.60;;;2.33;;
11238;SDS011;5677;48.488;13.436;2023-06-05T04:05:35;2.93;;;2.23;;
11238;SDS011;5677;48.488;13.436;2023-06-05T04:08:02;2.53;;;2.23;;
11238;SDS011;5677;48.488;13.436;2023-06-05T04:10:29;2.40;;;2.20;;
11238;SDS011;5677;48.488;13.436;2023-06-05T04:12:56;2.57;;;2.20;;
11238;SDS011;5677;48.488;13.436;2023-06-05T04:15:24;2.87;;;2.40;;
11238;SDS011;5677;48.488;13.436;2023-06-05T04:17:52;2.53;;;2.30;;
11238;SDS011;5677;48.488;13.436;2023-06-05T04:20:19;3.17;;;2.33;;
11238;SDS011;5677;48.488;13.436;2023-06-05T04:22:46;2.63;;;2.30;;
11238;SDS011;5677;48.488;13.436;2023-06-05T04:25:13;2.23;;;2.03;;
11238;SDS011;5677;48.488;13.436;2023-06-05T04:27:40;3.83;;;2.53;;
11238;SDS011;5677;48.488;13.436;2023-06-05T04:30:09;2.87;;;2.20;;
11238;SDS011;5677;48.488;13.436;2023-06-05T04:32:38;4.80;;;2.40;;
11238;SDS011;5677;48.488;13.436;2023-06-05T04:35:06;2.33;;;2.13;;
11238;SDS011;5677;48.488;13.436;2023-06-05T04:37:34;2.87;;;2.37;;
11238;SDS011;5677;48.488;13.436;2023-06-05T04:40:02;3.87;;;2.60;;
11238;SDS011;5677;48.488;13.436;2023-06-05T04:42:30;3.27;;;2.50;;
11238;SDS011;5677;48.488;13.436;2023-06-05T04:44:57;2.90;;;2.60;;
11238;SDS011;5677;48.488;13.436;2023-06-05T04:47:26;4.17;;;2.20;;
11238;SDS011;5677;48.488;13.436;2023-06-05T04:49:54;3.77;;;2.43;;
11238;SDS011;5677;48.488;13.436;2023-06-05T04:52:21;4.03;;;2.43;;
11238;SDS011;5677;48.488;13.436;2023-06-05T04:54:49;2.73;;;2.50;;
11238;SDS011;5677;48.488;13.436;2023-06-05T04:57:16;3.87;;;2.70;;
11238;SDS011;5677;48.488;13.436;2023-06-05T04:59:43;2.47;;;2.27;;
11238;SDS011;5677;48.488;13.436;2023-06-05T05:02:10;4.43;;;2.40;;
11238;SDS011;5677;48.488;13.436;2023-06-05T05:04:37;2.60;;;2.40;;
11238;SDS011;5677;48.488;13.436;2023-06-05T05:07:05;2.73;;;2.37;;
11238;SDS011;5677;48.488;13.436;2023-06-05T05:09:33;4.07;;;2.50;;
11238;SDS011;5677;48.488;13.436;2023-06-05T05:12:00;2.50;;;2.30;;
11238;SDS011;5677;48.488;13.436;2023-06-05T05:14:27;2.53;;;2.33;;
11238;SDS011;5677;48.488;13.436;2023-06-05T05:16:54;3.73;;;2.60;;
11238;SDS011;5677;48.488;13.436;2023-06-05T05:19:21;3.63;;;2.30;;
11238;SDS011;5677;48.488;13.436;2023-06-05T05:21:48;4.33;;;2.47;;
11238;SDS011;5677;48.488;13.436;2023-06-05T05:24:16;2.47;;;2.27;;
11238;SDS011;5677;48.488;13.436;2023-06-05T05:26:43;4.00;;;2.60;;
11238;SDS011;5677;48.488;13.436;2023-06-05T05:29:10;2.60;;;2.40;;
11238;SDS011;5677;48.488;13.436;2023-06-05T05:31:36;3.97;;;2.40;;
11238;SDS011;5677;48.488;13.436;2023-06-05T05:34:03;4.13;;;2.70;;
11238;SDS011;5677;48.488;13.436;2023-06-05T05:36:30;2.50;;;2.30;;
11238;SDS011;5677;48.488;13.436;2023-06-05T05:38:58;3.53;;;2.40;;
11238;SDS011;5677;48.488;13.436;2023-06-05T05:41:27;3.33;;;2.20;;
11238;SDS011;5677;48.488;13.436;2023-06-05T05:43:54;2.43;;;2.23;;
11238;SDS011;5677;48.488;13.436;2023-06-05T05:46:21;2.60;;;2.40;;
11238;SDS011;5677;48.488;13.436;2023-06-05T05:48:47;2.83;;;2.50;;
11238;SDS011;5677;48.488;13.436;2023-06-05T05:51:14;2.97;;;2.40;;
11238;SDS011;5677;48.488;13.436;2023-06-05T05:53:41;2.33;;;2.13;;
11238;SDS011;5677;48.488;13.436;2023-06-05T05:56:08;3.73;;;2.37;;
11238;SDS011;5677;48.488;13.436;2023-06-05T05:58:36;3.33;;;2.40;;
11238;SDS011;5677;48.488;13.436;2023-06-05T06:01:02;2.50;;;2.30;;
11238;SDS011;5677;48.488;13.436;2023-06-05T06:03:29;2.83;;;2.63;;
11238;SDS011;5677;48.488;13.436;2023-06-05T06:05:58;4.10;;;2.30;;
11238;SDS011;5677;48.488;13.436;2023-06-05T06:08:27;3.33;;;2.43;;
11238;SDS011;5677;48.488;13.436;2023-06-05T06:10:54;2.40;;;2.20;;
11238;SDS011;5677;48.488;13.436;2023-06-05T06:13:21;2.47;;;2.27;;
11238;SDS011;5677;48.488;13.436;2023-06-05T06:15:49;3.10;;;2.80;;
11238;SDS011;5677;48.488;13.436;2023-06-05T06:18:16;2.67;;;2.47;;
11238;SDS011;5677;48.488;13.436;2023-06-05T06:20:44;4.33;;;2.70;;
11238;SDS011;5677;48.488;13.436;2023-06-05T06:23:12;5.47;;;2.90;;
11238;SDS011;5677;48.488;13.436;2023-06-05T06:25:38;4.67;;;2.40;;
11238;SDS011;5677;48.488;13.436;2023-06-05T06:28:05;3.47;;;2.40;;
11238;SDS011;5677;48.488;13.436;2023-06-05T06:30:32;5.77;;;2.30;;
11238;SDS011;5677;48.488;13.436;2023-06-05T06:33:01;4.13;;;2.13;;
11238;SDS011;5677;48.488;13.436;2023-06-05T06:35:29;4.13;;;2.43;;
11238;SDS011;5677;48.488;13.436;2023-06-05T06:37:56;3.00;;;2.30;;
11238;SDS011;5677;48.488;13.436;2023-06-05T06:40:23;3.00;;;2.40;;
11238;SDS011;5677;48.488;13.436;2023-06-05T06:42:50;4.67;;;2.47;;
11238;SDS011;5677;48.488;13.436;2023-06-05T06:45:17;4.17;;;2.37;;
11238;SDS011;5677;48.488;13.436;2023-06-05T06:47:44;2.73;;;2.30;;
11238;SDS011;5677;48.488;13.436;2023-06-05T06:50:12;3.63;;;2.53;;
11238;SDS011;5677;48.488;13.436;2023-06-05T06:52:39;3.73;;;2.33;;
11238;SDS011;5677;48.488;13.436;2023-06-05T06:55:06;3.37;;;2.23;;
11238;SDS011;5677;48.488;13.436;2023-06-05T06:57:34;2.87;;;2.47;;
11238;SDS011;5677;48.488;13.436;2023-06-05T07:00:01;8.67;;;2.80;;
11238;SDS011;5677;48.488;13.436;2023-06-05T07:02:35;4.70;;;3.00;;
11238;SDS011;5677;48.488;13.436;2023-06-05T07:05:02;4.17;;;2.83;;
11238;SDS011;5677;48.488;13.436;2023-06-05T07:07:32;6.47;;;2.97;;
11238;SDS011;5677;48.488;13.436;2023-06-05T07:09:59;4.83;;;2.80;;
11238;SDS011;5677;48.488;13.436;2023-06-05T07:12:26;6.70;;;3.23;;
11238;SDS011;5677;48.488;13.436;2023-06-05T07:14:52;5.57;;;2.97;;
11238;SDS011;5677;48.488;13.436;2023-06-05T07:17:19;5.83;;;3.20;;
11238;SDS011;5677;48.488;13.436;2023-06-05T07:19:46;4.17;;;2.93;;
11238;SDS011;5677;48.488;13.436;2023-06-05T07:22:13;4.37;;;2.87;;
11238;SDS011;5677;48.488;13.436;2023-06-05T07:24:41;5.07;;;2.80;;
11238;SDS011;5677;48.488;13.436;2023-06-05T07:27:08;4.33;;;3.40;;
11238;SDS011;5677;48.488;13.436;2023-06-05T07:29:36;5.63;;;3.20;;
11238;SDS011;5677;48.488;13.436;2023-06-05T07:32:02;5.70;;;3.20;;
11238;SDS011;5677;48.488;13.436;2023-06-05T07:34:31;5.73;;;3.23;;
11238;SDS011;5677;48.488;13.436;2023-06-05T07:36:58;7.50;;;3.50;;
11238;SDS011;5677;48.488;13.436;2023-06-05T07:39:25;6.47;;;3.27;;
11238;SDS011;5677;48.488;13.436;2023-06-05T07:41:54;9.37;;;4.20;;
11238;SDS011;5677;48.488;13.436;2023-06-05T07:44:21;8.53;;;5.73;;
11238;SDS011;5677;48.488;13.436;2023-06-05T07:46:48;10.70;;;8.10;;
11238;SDS011;5677;48.488;13.436;2023-06-05T07:49:16;13.23;;;11.07;;
11238;SDS011;5677;48.488;13.436;2023-06-05T07:51:43;16.03;;;12.07;;
11238;SDS011;5677;48.488;13.436;2023-06-05T07:54:12;12.00;;;7.90;;
11238;SDS011;5677;48.488;13.436;2023-06-05T07:56:40;8.70;;;5.17;;
11238;SDS011;5677;48.488;13.436;2023-06-05T07:59:08;8.57;;;4.80;;
11238;SDS011;5677;48.488;13.436;2023-06-05T08:01:39;7.53;;;3.73;;
11238;SDS011;5677;48.488;13.436;2023-06-05T08:04:06;8.10;;;3.83;;
11238;SDS011;5677;48.488;13.436;2023-06-05T08:06:35;7.00;;;4.00;;
11238;SDS011;5677;48.488;13.436;2023-06-05T08:09:03;9.47;;;4.87;;
11238;SDS011;5677;48.488;13.436;2023-06-05T08:11:31;10.13;;;5.13;;
11238;SDS011;5677;48.488;13.436;2023-06-05T08:13:57;8.13;;;4.73;;
11238;SDS011;5677;48.488;13.436;2023-06-05T08:16:25;9.23;;;4.93;;
11238;SDS011;5677;48.488;13.436;2023-06-05T08:18:52;9.60;;;4.67;;
11238;SDS011;5677;48.488;13.436;2023-06-05T08:21:19;9.73;;;4.00;;
11238;SDS011;5677;48.488;13.436;2023-06-05T08:23:45;14.33;;;4.70;;
11238;SDS011;5677;48.488;13.436;2023-06-05T08:26:12;7.37;;;4.40;;
11238;SDS011;5677;48.488;13.436;2023-06-05T08:28:39;7.83;;;5.07;;
11238;SDS011;5677;48.488;13.436;2023-06-05T08:31:07;7.17;;;4.70;;
11238;SDS011;5677;48.488;13.436;2023-06-05T08:33:38;5.57;;;5.07;;
11238;SDS011;5677;48.488;13.436;2023-06-05T08:36:07;9.13;;;5.37;;
11238;SDS011;5677;48.488;13.436;2023-06-05T08:38:34;4.90;;;4.50;;
11238;SDS011;5677;48.488;13.436;2023-06-05T08:41:02;7.27;;;4.80;;
11238;SDS011;5677;48.488;13.436;2023-06-05T08:43:35;5.10;;;4.60;;
11238;SDS011;5677;48.488;13.436;2023-06-05T08:46:02;4.93;;;4.00;;
11238;SDS011;5677;48.488;13.436;2023-06-05T08:48:31;6.03;;;4.00;;
11238;SDS011;5677;48.488;13.436;2023-06-05T08:51:02;6.27;;;4.23;;
11238;SDS011;5677;48.488;13.436;2023-06-05T08:53:31;5.70;;;3.90;;
11238;SDS011;5677;48.488;13.436;2023-06-05T08:55:59;6.23;;;4.33;;
11238;SDS011;5677;48.488;13.436;2023-06-05T08:58:27;4.77;;;4.07;;
11238;SDS011;5677;48.488;13.436;2023-06-05T09:00:54;6.83;;;4.10;;
11238;SDS011;5677;48.488;13.436;2023-06-05T09:03:22;4.33;;;3.30;;
11238;SDS011;5677;48.488;13.436;2023-06-05T09:05:48;7.17;;;4.10;;
11238;SDS011;5677;48.488;13.436;2023-06-05T09:08:18;4.73;;;3.80;;
11238;SDS011;5677;48.488;13.436;2023-06-05T09:10:53;4.60;;;3.50;;
11238;SDS011;5677;48.488;13.436;2023-06-05T09:13:20;4.13;;;3.73;;
11238;SDS011;5677;48.488;13.436;2023-06-05T09:15:49;6.57;;;3.87;;
11238;SDS011;5677;48.488;13.436;2023-06-05T09:18:16;4.73;;;4.07;;
11238;SDS011;5677;48.488;13.436;2023-06-05T09:20:44;4.63;;;4.00;;
11238;SDS011;5677;48.488;13.436;2023-06-05T09:23:23;4.27;;;3.73;;
11238;SDS011;5677;48.488;13.436;2023-06-05T09:25:51;4.47;;;3.70;;
11238;SDS011;5677;48.488;13.436;2023-06-05T09:28:19;4.10;;;3.70;;
11238;SDS011;5677;48.488;13.436;2023-06-05T09:30:56;3.90;;;3.50;;
11238;SDS011;5677;48.488;13.436;2023-06-05T09:33:24;4.07;;;3.60;;
11238;SDS011;5677;48.488;13.436;2023-06-05T09:36:04;4.60;;;3.53;;
11238;SDS011;5677;48.488;13.436;2023-06-05T09:38:33;6.33;;;3.87;;
11238;SDS011;5677;48.488;13.436;2023-06-05T09:41:01;3.80;;;3.40;;
11238;SDS011;5677;48.488;13.436;2023-06-05T09:43:32;5.50;;;3.77;;
11238;SDS011;5677;48.488;13.436;2023-06-05T09:45:59;4.40;;;4.00;;
11238;SDS011;5677;48.488;13.436;2023-06-05T09:48:31;4.00;;;3.57;;
11238;SDS011;5677;48.488;13.436;2023-06-05T09:51:04;4.13;;;3.73;;
11238;SDS011;5677;48.488;13.436;2023-06-05T09:53:35;4.67;;;3.93;;
11238;SDS011;5677;48.488;13.436;2023-06-05T09:56:09;3.43;;;3.13;;
11238;SDS011;5677;48.488;13.436;2023-06-05T09:58:39;4.70;;;4.30;;
11238;SDS011;5677;48.488;13.436;2023-06-05T10:01:09;4.47;;;3.50;;
11238;SDS011;5677;48.488;13.436;2023-06-05T10:03:38;3.80;;;3.50;;
11238;SDS011;5677;48.488;13.436;2023-06-05T10:06:08;3.83;;;3.47;;
11238;SDS011;5677;48.488;13.436;2023-06-05T10:08:36;4.27;;;3.67;;
11238;SDS011;5677;48.488;13.436;2023-06-05T10:11:03;3.90;;;3.50;;
11238;SDS011;5677;48.488;13.436;2023-06-05T10:13:31;3.60;;;3.30;;
11238;SDS011;5677;48.488;13.436;2023-06-05T10:15:59;3.50;;;3.20;;
11238;SDS011;5677;48.488;13.436;2023-06-05T10:18:27;3.70;;;3.40;;
11238;SDS011;5677;48.488;13.436;2023-06-05T10:20:54;4.37;;;3.67;;
11238;SDS011;5677;48.488;13.436;2023-06-05T10:23:22;3.90;;;3.50;;
11238;SDS011;5677;48.488;13.436;2023-06-05T10:25:51;4.50;;;3.50;;
11238;SDS011;5677;48.488;13.436;2023-06-05T10:28:32;3.70;;;3.40;;
11238;SDS011;5677;48.488;13.436;2023-06-05T10:31:17;3.83;;;3.40;;
11238;SDS011;5677;48.488;13.436;2023-06-05T10:33:57;4.57;;;3.67;;
11238;SDS011;5677;48.488;13.436;2023-06-05T10:36:34;4.20;;;3.80;;
11238;SDS011;5677;48.488;13.436;2023-06-05T10:39:19;4.07;;;3.57;;
11238;SDS011;5677;48.488;13.436;2023-06-05T10:41:50;3.97;;;3.20;;
11238;SDS011;5677;48.488;13.436;2023-06-05T10:44:17;3.77;;;3.47;;
11238;SDS011;5677;48.488;13.436;2023-06-05T10:46:44;4.47;;;3.60;;
11238;SDS011;5677;48.488;13.436;2023-06-05T10:49:11;3.37;;;3.10;;
11238;SDS011;5677;48.488;13.436;2023-06-05T10:51:41;5.90;;;3.43;;
11238;SDS011;5677;48.488;13.436;2023-06-05T10:54:10;3.90;;;3.57;;
11238;SDS011;5677;48.488;13.436;2023-06-05T10:56:57;3.70;;;3.40;;
11238;SDS011;5677;48.488;13.436;2023-06-05T10:59:28;3.70;;;3.40;;
11238;SDS011;5677;48.488;13.436;2023-06-05T11:05:06;4.20;;;3.80;;
11238;SDS011;5677;48.488;13.436;2023-06-05T11:07:35;4.50;;;4.10;;
11238;SDS011;5677;48.488;13.436;2023-06-05T11:10:03;5.57;;;4.40;;
11238;SDS011;5677;48.488;13.436;2023-06-05T11:15:41;6.70;;;3.93;;
11238;SDS011;5677;48.488;13.436;2023-06-05T11:21:01;6.37;;;3.87;;
11238;SDS011;5677;48.488;13.436;2023-06-05T11:23:28;5.73;;;3.60;;
11238;SDS011;5677;48.488;13.436;2023-06-05T11:28:56;4.50;;;4.07;;
11238;SDS011;5677;48.488;13.436;2023-06-05T11:31:27;4.60;;;4.20;;
11238;SDS011;5677;48.488;13.436;2023-06-05T11:33:57;4.77;;;3.90;;
11238;SDS011;5677;48.488;13.436;2023-06-05T11:36:24;6.47;;;4.40;;
11238;SDS011;5677;48.488;13.436;2023-06-05T11:38:52;4.83;;;3.90;;
11238;SDS011;5677;48.488;13.436;2023-06-05T11:41:19;6.87;;;4.47;;
11238;SDS011;5677;48.488;13.436;2023-06-05T11:43:46;4.83;;;4.13;;
11238;SDS011;5677;48.488;13.436;2023-06-05T11:46:14;4.53;;;3.90;;
11238;SDS011;5677;48.488;13.436;2023-06-05T11:48:44;6.10;;;4.87;;
11238;SDS011;5677;48.488;13.436;2023-06-05T11:51:11;5.77;;;4.63;;
11238;SDS011;5677;48.488;13.436;2023-06-05T11:53:43;6.00;;;4.53;;
11238;SDS011;5677;48.488;13.436;2023-06-05T11:56:13;4.87;;;4.30;;
11238;SDS011;5677;48.488;13.436;2023-06-05T11:58:41;6.57;;;4.50;;
11238;SDS011;5677;48.488;13.436;2023-06-05T12:01:11;6.90;;;4.27;;
11238;SDS011;5677;48.488;13.436;2023-06-05T12:03:42;6.33;;;4.40;;
11238;SDS011;5677;48.488;13.436;2023-06-05T12:06:10;7.83;;;4.43;;
11238;SDS011;5677;48.488;13.436;2023-06-05T12:08:38;6.63;;;4.13;;
11238;SDS011;5677;48.488;13.436;2023-06-05T12:11:18;6.83;;;4.30;;
11238;SDS011;5677;48.488;13.436;2023-06-05T12:13:48;6.43;;;3.97;;
11238;SDS011;5677;48.488;13.436;2023-06-05T12:16:17;5.03;;;3.80;;
11238;SDS011;5677;48.488;13.436;2023-06-05T12:18:45;4.37;;;3.83;;
11238;SDS011;5677;48.488;13.436;2023-06-05T12:21:20;8.00;;;4.57;;
11238;SDS011;5677;48.488;13.436;2023-06-05T12:23:48;6.27;;;4.23;;
11238;SDS011;5677;48.488;13.436;2023-06-05T12:26:15;9.10;;;4.07;;
11238;SDS011;5677;48.488;13.436;2023-06-05T12:28:42;8.17;;;4.33;;
11238;SDS011;5677;48.488;13.436;2023-06-05T12:34:01;6.93;;;3.97;;
11238;SDS011;5677;48.488;13.436;2023-06-05T12:36:29;7.03;;;4.13;;
11238;SDS011;5677;48.488;13.436;2023-06-05T12:39:01;5.10;;;4.17;;
11238;SDS011;5677;48.488;13.436;2023-06-05T12:41:30;4.97;;;3.93;;
11238;SDS011;5677;48.488;13.436;2023-06-05T12:44:00;10.43;;;4.20;;
11238;SDS011;5677;48.488;13.436;2023-06-05T12:46:29;6.70;;;4.00;;
11238;SDS011;5677;48.488;13.436;2023-06-05T12:48:57;8.87;;;4.60;;
11238;SDS011;5677;48.488;13.436;2023-06-05T12:51:24;5.97;;;4.17;;
11238;SDS011;5677;48.488;13.436;2023-06-05T12:53:52;6.80;;;4.50;;
11238;SDS011;5677;48.488;13.436;2023-06-05T12:56:19;7.20;;;4.20;;
11238;SDS011;5677;48.488;13.436;2023-06-05T12:58:49;6.30;;;4.13;;
11238;SDS011;5677;48.488;13.436;2023-06-05T13:01:20;6.43;;;4.20;;
11238;SDS011;5677;48.488;13.436;2023-06-05T13:03:47;6.53;;;4.03;;
11238;SDS011;5677;48.488;13.436;2023-06-05T13:06:15;5.43;;;3.63;;
11238;SDS011;5677;48.488;13.436;2023-06-05T13:08:42;10.53;;;4.33;;
11238;SDS011;5677;48.488;13.436;2023-06-05T13:11:10;4.73;;;3.60;;
11238;SDS011;5677;48.488;13.436;2023-06-05T13:13:37;6.50;;;4.07;;
11238;SDS011;5677;48.488;13.436;2023-06-05T13:16:04;5.77;;;3.70;;
11238;SDS011;5677;48.488;13.436;2023-06-05T13:18:33;6.00;;;4.03;;
11238;SDS011;5677;48.488;13.436;2023-06-05T13:21:00;4.67;;;3.60;;
11238;SDS011;5677;48.488;13.436;2023-06-05T13:23:28;3.93;;;3.47;;
11238;SDS011;5677;48.488;13.436;2023-06-05T13:25:55;7.20;;;4.07;;
11238;SDS011;5677;48.488;13.436;2023-06-05T13:28:22;6.73;;;4.10;;
11238;SDS011;5677;48.488;13.436;2023-06-05T13:30:48;5.27;;;3.73;;
11238;SDS011;5677;48.488;13.436;2023-06-05T13:33:17;5.27;;;4.10;;
11238;SDS011;5677;48.488;13.436;2023-06-05T13:35:44;6.00;;;3.93;;
11238;SDS011;5677;48.488;13.436;2023-06-05T13:38:11;3.93;;;3.53;;
11238;SDS011;5677;48.488;13.436;2023-06-05T13:40:39;4.93;;;3.87;;
11238;SDS011;5677;48.488;13.436;2023-06-05T13:43:07;4.17;;;3.70;;
11238;SDS011;5677;48.488;13.436;2023-06-05T13:45:34;6.30;;;3.67;;
11238;SDS011;5677;48.488;13.436;2023-06-05T13:48:00;6.27;;;3.87;;
11238;SDS011;5677;48.488;13.436;2023-06-05T13:50:27;6.37;;;3.50;;
11238;SDS011;5677;48.488;13.436;2023-06-05T13:52:54;5.27;;;3.60;;
11238;SDS011;5677;48.488;13.436;2023-06-05T13:55:21;4.63;;;3.47;;
11238;SDS011;5677;48.488;13.436;2023-06-05T13:57:49;5.53;;;4.00;;
11238;SDS011;5677;48.488;13.436;2023-06-05T14:00:16;4.87;;;3.53;;
11238;SDS011;5677;48.488;13.436;2023-06-05T14:02:44;4.83;;;3.53;;
11238;SDS011;5677;48.488;13.436;2023-06-05T14:05:11;4.67;;;4.10;;
11238;SDS011;5677;48.488;13.436;2023-06-05T14:07:38;6.33;;;4.00;;
11238;SDS011;5677;48.488;13.436;2023-06-05T14:10:05;6.10;;;3.80;;
11238;SDS011;5677;48.488;13.436;2023-06-05T14:12:33;8.40;;;4.03;;
11238;SDS011;5677;48.488;13.436;2023-06-05T14:15:01;6.90;;;4.20;;
11238;SDS011;5677;48.488;13.436;2023-06-05T14:17:27;6.67;;;4.23;;
11238;SDS011;5677;48.488;13.436;2023-06-05T14:19:54;14.50;;;4.37;;
11238;SDS011;5677;48.488;13.436;2023-06-05T14:22:21;5.27;;;4.00;;
11238;SDS011;5677;48.488;13.436;2023-06-05T14:24:48;5.70;;;4.00;;
11238;SDS011;5677;48.488;13.436;2023-06-05T14:27:14;5.60;;;4.13;;
11238;SDS011;5677;48.488;13.436;2023-06-05T14:29:43;5.10;;;4.20;;
11238;SDS011;5677;48.488;13.436;2023-06-05T14:32:11;6.63;;;4.00;;
11238;SDS011;5677;48.488;13.436;2023-06-05T14:34:38;5.13;;;4.13;;
11238;SDS011;5677;48.488;13.436;2023-06-05T14:37:05;9.60;;;4.27;;
11238;SDS011;5677;48.488;13.436;2023-06-05T14:39:31;6.53;;;4.00;;
11238;SDS011;5677;48.488;13.436;2023-06-05T14:41:58;8.03;;;3.63;;
11238;SDS011;5677;48.488;13.436;2023-06-05T14:44:25;5.87;;;4.07;;
11238;SDS011;5677;48.488;13.436;2023-06-05T14:46:52;5.97;;;3.80;;
11238;SDS011;5677;48.488;13.436;2023-06-05T14:49:23;6.23;;;4.13;;
11238;SDS011;5677;48.488;13.436;2023-06-05T14:51:50;6.10;;;3.67;;
11238;SDS011;5677;48.488;13.436;2023-06-05T14:54:17;5.93;;;3.90;;
11238;SDS011;5677;48.488;13.436;2023-06-05T14:56:44;6.63;;;3.97;;
11238;SDS011;5677;48.488;13.436;2023-06-05T14:59:12;6.07;;;3.67;;
11238;SDS011;5677;48.488;13.436;2023-06-05T15:01:40;5.27;;;3.73;;
11238;SDS011;5677;48.488;13.436;2023-06-05T15:04:07;14.33;;;8.87;;
11238;SDS011;5677;48.488;13.436;2023-06-05T15:06:35;29.60;;;16.27;;
11238;SDS011;5677;48.488;13.436;2023-06-05T15:09:02;73.13;;;31.57;;